Time;durP1;ratioP1;P1;durP2;ratioP2;P2;SDS_P1;SDS_P2;PMS_P1;PMS_P2;Temp;Humidity;BMP_temperature;BMP_pressure;BME280_temperature;BME280_humidity;BME280_pressure;Samples;Min_cycle;Max_cycle;Signal;HPM_P1;HPM_P2
2022/06/04 00:00:53;;;;;;;11.55;5.20;;;11.90;99.90;;;;;;5034809;28;20058;-84
2022/06/04 00:03:19;;;;;;;10.95;5.45;;;11.90;99.90;;;;;;5060330;28;20046;-86
2022/06/04 00:05:51;;;;;;;13.68;5.93;;;11.90;99.90;;;;;;5052287;28;20045;-84
2022/06/04 00:08:18;;;;;;;8.73;4.63;;;11.90;99.90;;;;;;5051580;28;20512;-85
2022/06/04 00:16:17;;;;;;;11.18;5.95;;;11.80;99.90;;;;;;5059207;28;20044;-84
2022/06/04 00:18:43;;;;;;;11.02;5.78;;;11.80;99.90;;;;;;5063356;28;20065;-85
2022/06/04 00:21:11;;;;;;;10.15;5.70;;;11.90;99.90;;;;;;5062651;28;20045;-84
2022/06/04 00:23:37;;;;;;;13.13;5.90;;;11.80;99.90;;;;;;5070208;28;20072;-85
2022/06/04 00:26:04;;;;;;;8.85;4.68;;;11.80;99.90;;;;;;5061199;28;20045;-85
2022/06/04 00:28:30;;;;;;;10.77;5.38;;;11.70;99.90;;;;;;5070693;28;20168;-85
2022/06/04 00:30:57;;;;;;;9.13;5.50;;;11.70;99.90;;;;;;5043335;28;20124;-85
2022/06/04 00:33:24;;;;;;;11.82;5.68;;;11.70;99.90;;;;;;5049544;28;20036;-85
2022/06/04 00:35:52;;;;;;;8.00;4.70;;;11.70;99.90;;;;;;5069702;28;20402;-85
2022/06/04 00:38:20;;;;;;;12.05;5.95;;;11.70;99.90;;;;;;5052732;28;20055;-85
2022/06/04 00:41:07;;;;;;;11.90;5.65;;;11.70;99.90;;;;;;5036236;28;20137;-85
2022/06/04 00:44:02;;;;;;;14.70;5.80;;;11.70;99.90;;;;;;5044300;28;20177;-85
2022/06/04 00:46:40;;;;;;;12.30;5.45;;;11.70;99.90;;;;;;5035069;28;20124;-85
2022/06/04 00:49:14;;;;;;;11.93;5.57;;;11.60;99.90;;;;;;5037063;28;20500;-85
2022/06/04 00:51:43;;;;;;;11.93;5.93;;;11.60;99.90;;;;;;5033298;28;20037;-84
2022/06/04 00:54:09;;;;;;;13.82;5.57;;;11.60;99.90;;;;;;5059250;28;20183;-84
2022/06/04 00:56:43;;;;;;;15.73;5.95;;;11.60;99.90;;;;;;5050646;28;20167;-84
2022/06/04 00:59:14;;;;;;;10.02;5.75;;;11.60;99.90;;;;;;5056464;28;20053;-84
2022/06/04 01:02:04;;;;;;;10.27;6.05;;;11.60;99.90;;;;;;5047864;28;20063;-84
2022/06/04 01:04:47;;;;;;;18.38;6.70;;;11.60;99.90;;;;;;5035614;28;20044;-84
2022/06/04 01:07:25;;;;;;;14.73;6.85;;;11.50;99.90;;;;;;5053677;28;20056;-85
2022/06/04 01:09:59;;;;;;;12.98;6.80;;;11.50;99.90;;;;;;5050349;28;20049;-85
2022/06/04 01:12:44;;;;;;;12.43;6.53;;;11.50;99.90;;;;;;5051711;28;20476;-84
2022/06/04 01:15:41;;;;;;;15.20;5.80;;;11.50;99.90;;;;;;5034939;28;20286;-84
2022/06/04 01:18:34;;;;;;;13.50;6.72;;;11.40;99.90;;;;;;5045603;28;20377;-84
2022/06/04 01:21:16;;;;;;;12.75;7.00;;;11.40;99.90;;;;;;5039800;28;20055;-84
2022/06/04 01:24:11;;;;;;;10.73;6.22;;;11.40;99.90;;;;;;5056960;28;20041;-84
2022/06/04 01:27:22;;;;;;;12.45;7.25;;;11.40;99.90;;;;;;5046156;28;20048;-85
2022/06/04 01:30:14;;;;;;;15.10;6.45;;;11.40;99.90;;;;;;5034494;28;20408;-85
2022/06/04 01:32:46;;;;;;;16.52;7.47;;;11.40;99.90;;;;;;5042085;28;20049;-85
2022/06/04 01:35:19;;;;;;;13.80;5.60;;;11.30;99.90;;;;;;5045400;28;20790;-84
2022/06/04 01:38:00;;;;;;;14.60;7.57;;;11.30;99.90;;;;;;5044291;28;20119;-85
2022/06/04 01:41:03;;;;;;;14.00;7.90;;;11.30;99.90;;;;;;5040670;28;20048;-85
2022/06/04 01:43:36;;;;;;;16.52;7.32;;;11.20;99.90;;;;;;5040833;28;20499;-84
2022/06/04 01:46:13;;;;;;;16.05;7.32;;;11.30;99.90;;;;;;5039478;28;20073;-84
2022/06/04 01:48:43;;;;;;;12.85;7.72;;;11.20;99.90;;;;;;5042253;28;20049;-85
2022/06/04 01:51:11;;;;;;;11.43;7.28;;;11.20;99.90;;;;;;5050441;28;20056;-85
2022/06/04 01:53:41;;;;;;;12.32;6.65;;;11.20;99.90;;;;;;5035140;28;20127;-84
2022/06/04 01:56:12;;;;;;;15.82;7.40;;;11.20;99.90;;;;;;5037045;28;20041;-83
2022/06/04 01:58:46;;;;;;;17.50;7.07;;;11.20;99.90;;;;;;5041811;28;20107;-82
2022/06/04 02:01:15;;;;;;;12.68;6.78;;;11.10;99.90;;;;;;5048394;28;20044;-84
2022/06/04 02:04:04;;;;;;;11.95;7.03;;;11.10;99.90;;;;;;5043429;28;20045;-84
2022/06/04 02:07:39;;;;;;;13.77;7.18;;;11.10;99.90;;;;;;5047125;28;20043;-83
2022/06/04 02:09:53;;;;;;;15.40;8.02;;;11.10;99.90;;;;;;5032772;28;20505;-83
2022/06/04 02:12:20;;;;;;;20.05;7.63;;;11.20;99.90;;;;;;5041588;28;20045;-84
2022/06/04 02:14:46;;;;;;;16.50;7.95;;;11.20;99.90;;;;;;5038383;28;20050;-83
2022/06/04 02:17:16;;;;;;;14.82;8.95;;;11.00;99.90;;;;;;5038445;28;20107;-83
2022/06/04 02:19:42;;;;;;;14.68;6.90;;;11.10;99.90;;;;;;5049588;28;20048;-83
2022/06/04 02:22:11;;;;;;;13.60;7.18;;;11.20;99.90;;;;;;5050689;28;20480;-85
2022/06/04 02:24:38;;;;;;;19.55;7.95;;;11.00;99.90;;;;;;5045680;28;20091;-84
2022/06/04 02:27:06;;;;;;;19.60;8.15;;;11.00;99.90;;;;;;5045023;28;20049;-84
2022/06/04 02:29:33;;;;;;;15.15;7.63;;;11.00;99.90;;;;;;5045854;28;20111;-84
2022/06/04 02:32:19;;;;;;;15.77;7.85;;;11.00;99.90;;;;;;5037018;28;20045;-83
2022/06/04 02:34:53;;;;;;;17.52;8.50;;;11.00;99.90;;;;;;5046090;28;20049;-84
2022/06/04 02:37:22;;;;;;;17.77;7.32;;;10.90;99.90;;;;;;5060406;28;20041;-83
2022/06/04 02:40:28;;;;;;;17.98;8.52;;;11.00;99.90;;;;;;5047689;28;20045;-82
2022/06/04 02:42:57;;;;;;;12.95;6.95;;;10.90;99.90;;;;;;5042487;28;20079;-83
2022/06/04 02:45:44;;;;;;;14.75;7.65;;;10.90;99.90;;;;;;5043696;28;20053;-84
2022/06/04 02:48:20;;;;;;;14.23;7.03;;;10.90;99.90;;;;;;5036896;28;20049;-83
2022/06/04 02:50:51;;;;;;;12.85;7.57;;;10.80;99.90;;;;;;5044061;28;20072;-83
2022/06/04 02:53:18;;;;;;;12.65;7.80;;;10.80;99.90;;;;;;5040290;28;20053;-82
2022/06/04 02:56:08;;;;;;;17.08;8.32;;;10.70;99.90;;;;;;5042579;28;20094;-84
2022/06/04 02:58:35;;;;;;;13.13;6.78;;;10.70;99.90;;;;;;5045961;28;20731;-83
2022/06/04 03:01:04;;;;;;;13.52;7.97;;;10.70;99.90;;;;;;5041009;28;20434;-83
2022/06/04 03:03:29;;;;;;;15.18;7.60;;;10.70;99.90;;;;;;5041327;28;20439;-83
2022/06/04 03:05:59;;;;;;;16.10;8.73;;;10.70;99.90;;;;;;5058722;28;20040;-84
2022/06/04 03:08:30;;;;;;;14.48;7.55;;;10.70;99.90;;;;;;5046199;28;20049;-83
2022/06/04 03:10:56;;;;;;;14.40;7.13;;;10.70;99.90;;;;;;5043839;28;20052;-84
2022/06/04 03:13:22;;;;;;;12.60;7.25;;;10.60;99.90;;;;;;5053667;28;20393;-84
2022/06/04 03:15:48;;;;;;;15.45;7.38;;;10.60;99.90;;;;;;5056898;28;20037;-84
2022/06/04 03:18:14;;;;;;;12.50;7.78;;;10.60;99.90;;;;;;5036913;28;20056;-84
2022/06/04 03:20:41;;;;;;;15.73;7.47;;;10.60;99.90;;;;;;5048342;28;20047;-83
2022/06/04 03:23:07;;;;;;;14.80;6.68;;;10.60;99.90;;;;;;5038963;28;20170;-84
2022/06/04 03:25:35;;;;;;;13.95;8.18;;;10.60;99.90;;;;;;5047649;28;20088;-83
2022/06/04 03:28:01;;;;;;;11.98;6.40;;;10.60;99.90;;;;;;5038793;28;20116;-84
2022/06/04 03:30:27;;;;;;;14.75;7.55;;;10.60;99.90;;;;;;5038981;28;20758;-84
2022/06/04 03:32:54;;;;;;;14.73;6.63;;;10.60;99.90;;;;;;5043319;28;20048;-84
2022/06/04 03:35:20;;;;;;;12.57;6.32;;;10.80;99.90;;;;;;5049237;28;20068;-84
2022/06/04 03:37:45;;;;;;;15.25;7.10;;;10.60;99.90;;;;;;5051707;28;20079;-83
2022/06/04 03:40:12;;;;;;;14.45;7.40;;;10.60;99.90;;;;;;5048794;28;20532;-84
2022/06/04 03:42:38;;;;;;;12.02;7.15;;;10.60;99.90;;;;;;5042935;28;20045;-84
2022/06/04 03:45:05;;;;;;;14.30;6.78;;;10.60;99.90;;;;;;5049571;28;20079;-83
2022/06/04 03:47:36;;;;;;;14.20;6.47;;;10.60;99.90;;;;;;5037702;28;20105;-84
2022/06/04 03:50:07;;;;;;;13.95;6.10;;;10.60;99.90;;;;;;5066106;28;20067;-84
2022/06/04 03:52:32;;;;;;;14.25;6.30;;;10.60;99.90;;;;;;5041737;28;20041;-84
2022/06/04 03:54:58;;;;;;;18.95;7.65;;;10.60;99.90;;;;;;5055785;28;20049;-83
2022/06/04 03:57:39;;;;;;;10.30;5.40;;;10.60;99.90;;;;;;5053588;28;20071;-84
2022/06/04 04:00:12;;;;;;;11.68;6.30;;;10.90;99.90;;;;;;5055189;28;20509;-83
2022/06/04 04:02:38;;;;;;;12.93;6.32;;;10.60;99.90;;;;;;5048263;28;20094;-83
2022/06/04 04:05:06;;;;;;;14.07;6.32;;;10.60;99.90;;;;;;5050790;28;20045;-84
2022/06/04 04:07:32;;;;;;;10.88;5.72;;;10.60;99.90;;;;;;5045824;28;20407;-83
2022/06/04 04:09:58;;;;;;;14.43;6.15;;;10.60;99.90;;;;;;5048853;28;20041;-84
2022/06/04 04:12:23;;;;;;;13.60;5.97;;;10.60;99.90;;;;;;5042011;28;20052;-84
2022/06/04 04:14:49;;;;;;;10.05;5.63;;;10.60;99.90;;;;;;5042570;28;20072;-83
2022/06/04 04:17:15;;;;;;;10.85;5.45;;;10.60;99.90;;;;;;5054610;28;20055;-83
2022/06/04 04:19:41;;;;;;;11.20;5.15;;;10.60;99.90;;;;;;5046978;28;20511;-84
2022/06/04 04:22:06;;;;;;;9.90;5.50;;;10.60;99.90;;;;;;5049199;28;20047;-83
2022/06/04 04:24:32;;;;;;;12.88;5.60;;;10.60;99.90;;;;;;5047945;28;20049;-84
2022/06/04 04:26:58;;;;;;;8.00;5.03;;;10.60;99.90;;;;;;5044993;28;20085;-84
2022/06/04 04:29:23;;;;;;;8.93;4.63;;;10.70;99.90;;;;;;5043155;28;20039;-84
2022/06/04 04:31:49;;;;;;;11.43;4.80;;;10.70;99.90;;;;;;5051668;28;20049;-84
2022/06/04 04:34:15;;;;;;;7.80;5.10;;;10.70;99.90;;;;;;5044265;28;20030;-84
2022/06/04 04:36:40;;;;;;;9.50;4.85;;;10.70;99.90;;;;;;5047399;28;20037;-84
2022/06/04 04:39:06;;;;;;;11.50;4.95;;;10.70;99.90;;;;;;5051148;28;20071;-84
2022/06/04 04:41:31;;;;;;;9.52;4.60;;;10.70;99.90;;;;;;5046259;28;20448;-84
2022/06/04 04:43:57;;;;;;;8.93;4.57;;;10.80;99.90;;;;;;5042019;28;20503;-84
2022/06/04 04:46:23;;;;;;;11.63;4.95;;;10.80;99.90;;;;;;5054787;28;20455;-84
2022/06/04 04:48:49;;;;;;;12.15;5.22;;;10.80;99.90;;;;;;5049366;28;20044;-84
2022/06/04 04:51:21;;;;;;;12.52;4.80;;;10.80;99.90;;;;;;5034815;28;20136;-84
2022/06/04 04:53:47;;;;;;;10.57;4.72;;;11.00;99.90;;;;;;5040620;28;20492;-84
2022/06/04 04:56:15;;;;;;;9.57;4.75;;;10.90;99.90;;;;;;5048014;28;20060;-84
2022/06/04 04:58:40;;;;;;;9.55;4.43;;;11.00;99.90;;;;;;5045641;28;20029;-84
2022/06/04 05:01:16;;;;;;;8.73;4.10;;;10.90;99.90;;;;;;5042271;28;20045;-84
2022/06/04 05:03:44;;;;;;;9.40;4.57;;;10.90;99.90;;;;;;5043485;28;20049;-84
2022/06/04 05:06:12;;;;;;;11.27;4.18;;;11.00;99.90;;;;;;5047614;28;20040;-84
2022/06/04 05:08:38;;;;;;;12.90;4.88;;;11.00;99.90;;;;;;5061143;28;20049;-84
2022/06/04 05:11:09;;;;;;;7.43;4.20;;;11.00;99.90;;;;;;5039365;28;20044;-84
2022/06/04 05:13:35;;;;;;;8.98;4.97;;;11.10;99.90;;;;;;5043482;28;20051;-84
2022/06/04 05:16:01;;;;;;;8.55;4.28;;;11.20;99.90;;;;;;5052788;28;20083;-83
2022/06/04 05:18:26;;;;;;;7.78;4.18;;;11.20;99.90;;;;;;5054198;28;20044;-83
2022/06/04 05:20:52;;;;;;;7.10;4.00;;;11.20;99.90;;;;;;5048908;28;20041;-83
2022/06/04 05:23:17;;;;;;;12.30;4.90;;;11.20;99.90;;;;;;5059360;28;20098;-83
2022/06/04 05:25:44;;;;;;;9.45;4.28;;;11.30;99.90;;;;;;5051187;28;20078;-83
2022/06/04 05:28:09;;;;;;;12.93;4.65;;;11.30;99.90;;;;;;5048642;28;20041;-83
2022/06/04 05:30:35;;;;;;;9.32;4.15;;;11.30;99.90;;;;;;5053337;28;20033;-83
2022/06/04 05:33:01;;;;;;;11.27;4.55;;;11.40;99.90;;;;;;5049482;28;20044;-83
2022/06/04 05:35:27;;;;;;;12.35;4.40;;;11.40;99.90;;;;;;5043216;28;20434;-83
2022/06/04 05:37:52;;;;;;;7.60;3.65;;;11.50;99.90;;;;;;5051232;28;20084;-83
2022/06/04 05:40:18;;;;;;;8.85;4.60;;;11.50;99.90;;;;;;5044074;28;20045;-83
2022/06/04 05:42:43;;;;;;;11.90;5.10;;;11.50;99.90;;;;;;5041164;28;20515;-83
2022/06/04 05:45:09;;;;;;;10.10;4.22;;;11.60;99.90;;;;;;5051481;28;20072;-83
2022/06/04 05:47:35;;;;;;;10.68;4.53;;;11.60;99.90;;;;;;5032864;28;20518;-83
2022/06/04 05:50:00;;;;;;;8.23;4.70;;;11.70;99.90;;;;;;5049530;28;20048;-84
2022/06/04 05:52:26;;;;;;;12.90;5.35;;;11.70;99.90;;;;;;5049469;28;20139;-82
2022/06/04 05:54:52;;;;;;;9.23;4.70;;;11.80;99.90;;;;;;5050669;28;20049;-83
2022/06/04 05:57:18;;;;;;;9.10;4.38;;;11.80;99.90;;;;;;5033544;28;20085;-83
2022/06/04 05:59:43;;;;;;;8.68;4.40;;;11.90;99.90;;;;;;5048910;28;20045;-84
2022/06/04 06:02:10;;;;;;;10.10;5.28;;;12.00;99.90;;;;;;5064872;28;20074;-83
2022/06/04 06:04:36;;;;;;;11.13;4.55;;;12.00;99.90;;;;;;5064748;28;20062;-83
2022/06/04 06:07:01;;;;;;;11.00;4.90;;;12.10;99.90;;;;;;5051264;28;20049;-83
2022/06/04 06:09:28;;;;;;;9.02;5.00;;;12.20;99.90;;;;;;5042318;28;20040;-83
2022/06/04 06:11:55;;;;;;;8.73;5.05;;;12.20;99.90;;;;;;5050087;28;20053;-82
2022/06/04 06:14:22;;;;;;;8.30;4.22;;;12.30;99.90;;;;;;5043154;28;20068;-83
2022/06/04 06:16:49;;;;;;;8.63;5.30;;;12.30;99.90;;;;;;5046719;28;20080;-83
2022/06/04 06:19:16;;;;;;;8.25;4.35;;;12.30;99.90;;;;;;5048005;28;20570;-80
2022/06/04 06:21:43;;;;;;;9.88;5.10;;;12.40;99.90;;;;;;5053536;28;20168;-81
2022/06/04 06:24:10;;;;;;;9.63;4.50;;;12.40;99.90;;;;;;5041879;28;20508;-81
2022/06/04 06:26:44;;;;;;;11.63;5.45;;;12.50;99.90;;;;;;5045356;28;20495;-78
2022/06/04 06:29:09;;;;;;;7.43;4.30;;;12.50;99.90;;;;;;5047670;28;20084;-81
2022/06/04 06:31:36;;;;;;;10.07;6.20;;;12.70;99.90;;;;;;5041279;28;20041;-81
2022/06/04 06:34:02;;;;;;;11.18;5.43;;;12.70;99.90;;;;;;5044601;28;20048;-81
2022/06/04 06:36:28;;;;;;;11.88;4.63;;;13.00;99.90;;;;;;5040698;28;20396;-81
2022/06/04 06:38:54;;;;;;;9.05;4.93;;;12.80;99.90;;;;;;5051373;28;20045;-81
2022/06/04 06:41:23;;;;;;;13.23;4.90;;;12.80;99.90;;;;;;5064273;28;20036;-80
2022/06/04 06:43:50;;;;;;;8.52;4.25;;;12.90;99.90;;;;;;5047966;28;20407;-85
2022/06/04 06:46:17;;;;;;;8.10;4.90;;;12.90;99.90;;;;;;5063436;28;20047;-86
2022/06/04 06:48:44;;;;;;;8.38;5.00;;;13.00;99.90;;;;;;5060823;28;20052;-84
2022/06/04 06:51:11;;;;;;;7.88;4.82;;;13.30;99.90;;;;;;5067232;28;20072;-86
2022/06/04 06:53:37;;;;;;;10.18;5.38;;;13.10;99.90;;;;;;5035270;28;20079;-83
2022/06/04 06:56:17;;;;;;;7.35;4.40;;;13.20;99.90;;;;;;5042556;28;20053;-85
2022/06/04 06:58:42;;;;;;;8.20;5.10;;;13.30;99.90;;;;;;5054079;28;20487;-85
2022/06/04 07:01:09;;;;;;;10.02;5.13;;;13.50;99.90;;;;;;5048767;28;20041;-85
2022/06/04 07:03:36;;;;;;;8.63;4.82;;;13.90;99.90;;;;;;5054251;28;20045;-85
2022/06/04 07:06:03;;;;;;;12.73;5.50;;;13.90;99.90;;;;;;5067045;28;20049;-84
2022/06/04 07:08:29;;;;;;;13.00;5.25;;;14.10;99.90;;;;;;5058884;28;20101;-86
2022/06/04 07:10:55;;;;;;;8.25;4.35;;;14.20;99.90;;;;;;5063879;28;20392;-85
2022/06/04 07:13:20;;;;;;;9.80;4.78;;;14.40;99.90;;;;;;5051780;28;20541;-85
2022/06/04 07:15:46;;;;;;;7.25;4.38;;;14.50;99.90;;;;;;5052645;28;20490;-85
2022/06/04 07:18:13;;;;;;;9.27;4.78;;;14.80;99.90;;;;;;5047097;28;20049;-85
2022/06/04 07:20:40;;;;;;;6.55;3.90;;;14.90;99.90;;;;;;5055211;28;20044;-83
2022/06/04 07:23:06;;;;;;;7.40;4.05;;;15.20;99.90;;;;;;5072184;28;20048;-81
2022/06/04 07:25:32;;;;;;;7.25;3.92;;;15.40;99.90;;;;;;5072371;28;20079;-84
2022/06/04 07:27:58;;;;;;;8.77;4.47;;;15.50;99.90;;;;;;5059872;28;20067;-84
2022/06/04 07:30:24;;;;;;;8.85;4.60;;;15.60;99.90;;;;;;5055138;28;20037;-83
2022/06/04 07:32:49;;;;;;;8.48;3.97;;;15.80;99.90;;;;;;5039714;28;20094;-86
2022/06/04 07:35:15;;;;;;;7.90;3.83;;;15.90;99.90;;;;;;5068256;28;20047;-84
2022/06/04 07:37:41;;;;;;;6.68;3.88;;;16.20;99.90;;;;;;5049006;28;20045;-89
2022/06/04 07:40:07;;;;;;;7.80;4.03;;;16.40;99.90;;;;;;5068609;28;20052;-85
2022/06/04 07:42:33;;;;;;;7.85;3.95;;;16.50;99.90;;;;;;5037415;28;20041;-85
2022/06/04 07:44:59;;;;;;;7.70;3.63;;;16.70;99.90;;;;;;5050594;28;20552;-84
2022/06/04 07:47:24;;;;;;;7.57;3.67;;;16.70;99.90;;;;;;5052899;28;20056;-84
2022/06/04 07:49:50;;;;;;;6.82;3.90;;;16.80;99.90;;;;;;5047517;28;20045;-86
2022/06/04 07:52:16;;;;;;;6.88;3.72;;;16.90;99.90;;;;;;5050134;28;20082;-86
2022/06/04 07:54:42;;;;;;;8.10;4.07;;;16.90;99.90;;;;;;5047983;28;20079;-86
2022/06/04 07:57:08;;;;;;;6.85;3.67;;;17.10;99.90;;;;;;5061936;28;20098;-86
2022/06/04 07:59:34;;;;;;;7.47;4.22;;;17.20;99.90;;;;;;5060384;28;20464;-81
2022/06/04 08:01:59;;;;;;;5.90;4.07;;;17.20;99.90;;;;;;5049212;28;20164;-86
2022/06/04 08:04:25;;;;;;;9.05;4.32;;;17.30;99.90;;;;;;5044775;28;20040;-87
2022/06/04 08:06:51;;;;;;;8.13;4.35;;;17.40;99.90;;;;;;5064988;28;20051;-87
2022/06/04 08:09:16;;;;;;;6.55;4.25;;;17.40;99.90;;;;;;5048516;28;20042;-81
2022/06/04 08:11:42;;;;;;;6.85;3.70;;;17.40;99.90;;;;;;5047576;28;20041;-82
2022/06/04 08:14:08;;;;;;;6.65;3.90;;;17.40;99.90;;;;;;5058510;28;20059;-83
2022/06/04 08:16:41;;;;;;;5.43;3.38;;;17.50;99.90;;;;;;5051962;28;20044;-81
2022/06/04 08:19:07;;;;;;;5.20;3.40;;;17.50;99.90;;;;;;5048449;28;20057;-84
2022/06/04 08:21:35;;;;;;;10.43;3.75;;;17.80;99.90;;;;;;5051302;28;20358;-81
2022/06/04 08:24:00;;;;;;;9.20;4.22;;;17.70;99.90;;;;;;5059817;28;20052;-87
2022/06/04 08:26:27;;;;;;;8.32;3.80;;;17.70;99.90;;;;;;5059536;28;20033;-86
2022/06/04 08:28:52;;;;;;;5.55;3.40;;;17.80;99.90;;;;;;5045378;28;20061;-88
2022/06/04 08:31:19;;;;;;;8.07;4.22;;;17.80;99.90;;;;;;5066001;28;20100;-86
2022/06/04 08:33:45;;;;;;;7.80;3.70;;;17.80;99.90;;;;;;5078227;28;20055;-86
2022/06/04 08:36:12;;;;;;;7.53;4.10;;;17.70;99.90;;;;;;5053682;28;20041;-85
2022/06/04 08:38:39;;;;;;;7.45;4.40;;;17.70;99.90;;;;;;5046436;28;20084;-85
2022/06/04 08:41:08;;;;;;;6.05;3.70;;;17.70;99.90;;;;;;5059303;28;20083;-86
2022/06/04 08:43:36;;;;;;;7.97;3.85;;;17.70;99.90;;;;;;5052185;28;20033;-85
2022/06/04 08:46:08;;;;;;;6.47;4.35;;;17.80;99.90;;;;;;5048436;28;20519;-85
2022/06/04 08:48:37;;;;;;;8.77;4.35;;;17.90;99.90;;;;;;5052938;28;20080;-85
2022/06/04 08:51:21;;;;;;;8.75;4.28;;;18.00;99.90;;;;;;5044107;28;20057;-88
2022/06/04 08:53:51;;;;;;;6.53;3.97;;;18.10;99.90;;;;;;5051583;28;20041;-87
2022/06/04 08:59:26;;;;;;;8.23;4.38;;;18.20;99.90;;;;;;5054856;28;20056;-83
2022/06/04 09:02:00;;;;;;;7.10;3.70;;;18.30;99.90;;;;;;5055688;28;20634;-83
2022/06/04 09:05:01;;;;;;;6.03;3.38;;;18.40;99.90;;;;;;5056851;28;20041;-84
2022/06/04 09:07:35;;;;;;;7.95;3.92;;;18.60;99.90;;;;;;5058364;28;20103;-84
2022/06/04 09:10:16;;;;;;;6.65;3.53;;;18.60;99.90;;;;;;5041949;28;20045;-83
2022/06/04 09:12:56;;;;;;;8.63;3.35;;;18.70;99.90;;;;;;5034968;28;20049;-83
2022/06/04 09:15:31;;;;;;;7.63;4.05;;;18.60;99.90;;;;;;5035770;28;20048;-81
2022/06/04 09:17:59;;;;;;;8.15;3.75;;;18.70;99.90;;;;;;5049425;28;20061;-80
2022/06/04 09:20:39;;;;;;;7.38;3.50;;;18.70;99.90;;;;;;5063996;28;20044;-82
2022/06/04 09:23:19;;;;;;;14.40;3.65;;;18.70;99.90;;;;;;5048560;28;20457;-82
2022/06/04 09:25:52;;;;;;;6.50;4.00;;;18.80;99.90;;;;;;5048658;28;20053;-83
2022/06/04 09:28:54;;;;;;;6.82;3.80;;;18.80;99.90;;;;;;5037303;28;20088;-81
2022/06/04 09:31:47;;;;;;;10.52;3.50;;;19.00;99.90;;;;;;5033808;28;20057;-82
2022/06/04 09:34:38;;;;;;;7.47;3.30;;;19.20;99.90;;;;;;5033643;28;20072;-81
2022/06/04 09:37:09;;;;;;;6.35;3.08;;;19.50;99.90;;;;;;5041890;28;20047;-80
2022/06/04 09:39:39;;;;;;;6.03;2.78;;;19.60;99.90;;;;;;5072798;28;20174;-81
2022/06/04 09:42:22;;;;;;;5.32;2.85;;;19.70;99.90;;;;;;5035668;28;20084;-82
2022/06/04 09:45:17;;;;;;;6.63;2.92;;;19.80;99.90;;;;;;5033678;28;20468;-82
2022/06/04 09:47:45;;;;;;;5.50;2.80;;;19.90;99.90;;;;;;5049717;28;20052;-83
2022/06/04 09:50:24;;;;;;;6.07;2.88;;;20.00;99.90;;;;;;5051545;28;20484;-84
2022/06/04 09:53:12;;;;;;;7.35;2.85;;;20.20;99.90;;;;;;5063617;28;20037;-84
2022/06/04 09:55:47;;;;;;;4.93;3.33;;;20.30;99.90;;;;;;5049237;28;20053;-83
2022/06/04 09:58:29;;;;;;;;;;;20.30;99.90;;;;;;5049494;28;20041;-84
2022/06/04 10:01:16;;;;;;;;;;;20.40;99.90;;;;;;5064967;28;19924;-83
2022/06/04 10:03:44;;;;;;;6.45;2.60;;;20.40;99.90;;;;;;5048059;28;19921;-82
2022/06/04 10:06:13;;;;;;;5.68;2.83;;;20.40;99.90;;;;;;5054619;28;20125;-83
2022/06/04 10:11:33;;;;;;;5.32;2.80;;;20.60;99.90;;;;;;5057443;28;20081;-81
2022/06/04 10:14:00;;;;;;;5.13;2.88;;;20.60;99.60;;;;;;5054753;28;20049;-82
2022/06/04 10:16:39;;;;;;;3.92;2.42;;;20.60;99.70;;;;;;5052065;28;20055;-78
2022/06/04 10:19:17;;;;;;;5.78;2.60;;;20.70;99.60;;;;;;5042522;28;20103;-83
2022/06/04 10:21:45;;;;;;;6.60;2.95;;;20.70;99.50;;;;;;5057926;28;20048;-83
2022/06/04 10:24:19;;;;;;;5.45;2.90;;;20.70;99.60;;;;;;5050789;28;20053;-83
2022/06/04 10:27:10;;;;;;;6.97;3.38;;;20.90;99.60;;;;;;5052734;28;20036;-81
2022/06/04 10:30:05;;;;;;;6.25;2.60;;;20.90;99.00;;;;;;5050042;28;20037;-81
2022/06/04 10:32:49;;;;;;;;;;;20.80;99.40;;;;;;5058505;28;20060;-83
2022/06/04 10:35:22;;;;;;;6.80;2.70;;;20.60;97.90;;;;;;5048896;28;19928;-82
2022/06/04 10:38:05;;;;;;;5.53;2.83;;;20.60;98.90;;;;;;5070494;28;20082;-85
2022/06/04 10:40:56;;;;;;;5.22;2.53;;;20.50;98.90;;;;;;5054803;28;20445;-84
2022/06/04 10:43:40;;;;;;;5.75;2.95;;;20.40;99.50;;;;;;5063427;28;20139;-84
2022/06/04 10:46:34;;;;;;;6.55;2.70;;;20.30;99.20;;;;;;5058038;28;20037;-83
2022/06/04 10:49:21;;;;;;;6.05;3.08;;;20.30;99.60;;;;;;5060721;28;20052;-86
2022/06/04 10:51:46;;;;;;;6.97;3.35;;;20.30;99.80;;;;;;5055492;28;20045;-86
2022/06/04 10:54:18;;;;;;;6.88;2.90;;;20.40;99.70;;;;;;5052444;28;20704;-85
2022/06/04 10:56:49;;;;;;;5.63;2.63;;;20.50;99.90;;;;;;5064655;28;20064;-85
2022/06/04 10:59:41;;;;;;;6.35;3.00;;;20.40;99.50;;;;;;5049565;28;20117;-85
2022/06/04 11:02:30;;;;;;;6.47;2.75;;;20.60;99.90;;;;;;5072671;28;20052;-86
2022/06/04 11:05:04;;;;;;;5.88;2.67;;;20.70;99.90;;;;;;5070240;28;20049;-86
2022/06/04 11:07:30;;;;;;;5.82;2.75;;;20.80;99.90;;;;;;5034549;28;20037;-84
2022/06/04 11:09:56;;;;;;;6.60;2.72;;;20.80;99.90;;;;;;5060803;28;20090;-84
2022/06/04 11:12:44;;;;;;;6.68;2.75;;;20.80;99.80;;;;;;5058252;28;20145;-84
2022/06/04 11:15:19;;;;;;;7.20;3.10;;;20.90;99.90;;;;;;5036841;28;20372;-84
2022/06/04 11:18:02;;;;;;;5.82;3.00;;;20.90;99.90;;;;;;5053224;28;20048;-82
2022/06/04 11:20:31;;;;;;;5.43;2.90;;;20.90;99.90;;;;;;5057962;28;20052;-82
2022/06/04 11:23:24;;;;;;;5.97;2.70;;;21.00;99.90;;;;;;5052369;28;20048;-79
2022/06/04 11:25:55;;;;;;;5.78;2.70;;;21.10;99.90;;;;;;5043355;28;20602;-79
2022/06/04 11:28:27;;;;;;;6.35;3.13;;;21.20;99.90;;;;;;5048573;28;20403;-81
2022/06/04 11:31:23;;;;;;;7.93;2.85;;;21.30;99.90;;;;;;5062948;28;20083;-80
2022/06/04 11:34:07;;;;;;;7.55;2.85;;;21.40;99.90;;;;;;5044214;28;20049;-81
2022/06/04 11:36:56;;;;;;;6.27;3.13;;;21.40;99.90;;;;;;5045812;28;20055;-82
2022/06/04 11:39:52;;;;;;;4.97;2.83;;;21.40;98.90;;;;;;5058944;28;20315;-82
2022/06/04 11:42:42;;;;;;;7.97;3.10;;;21.50;99.90;;;;;;5036639;28;20056;-83
2022/06/04 11:45:08;;;;;;;5.32;2.92;;;21.40;99.90;;;;;;5065600;28;20520;-82
2022/06/04 11:47:52;;;;;;;8.85;3.05;;;21.40;99.90;;;;;;5057765;28;20079;-81
2022/06/04 11:50:38;;;;;;;7.47;3.50;;;21.30;99.20;;;;;;5036908;28;20053;-77
2022/06/04 11:53:28;;;;;;;8.43;3.17;;;21.40;99.90;;;;;;5060676;28;20056;-78
2022/06/04 11:55:56;;;;;;;8.30;3.28;;;21.30;99.70;;;;;;5047623;28;20426;-80
2022/06/04 11:58:39;;;;;;;6.50;3.05;;;21.40;99.70;;;;;;5052393;28;20123;-81
2022/06/04 12:01:12;;;;;;;8.65;3.20;;;21.40;99.60;;;;;;5052831;28;20095;-81
2022/06/04 12:03:51;;;;;;;6.63;3.45;;;21.50;99.90;;;;;;5057175;28;20053;-82
2022/06/04 12:06:38;;;;;;;10.23;2.90;;;21.40;99.20;;;;;;5051489;28;20074;-80
2022/06/04 12:09:17;;;;;;;5.95;3.28;;;21.50;99.30;;;;;;5063982;28;20425;-81
2022/06/04 12:11:52;;;;;;;9.40;3.40;;;21.60;99.40;;;;;;5057372;28;20079;-75
2022/06/04 12:14:40;;;;;;;5.82;2.83;;;21.60;99.90;;;;;;5051700;28;20068;-81
2022/06/04 12:17:25;;;;;;;5.40;2.92;;;21.70;99.90;;;;;;5058008;28;20475;-79
2022/06/04 12:25:41;;;;;;;8.60;3.25;;;21.90;99.90;;;;;;5066247;28;20137;-79
2022/06/04 12:28:27;;;;;;;7.65;3.30;;;22.00;99.90;;;;;;5048923;28;20044;-79
2022/06/04 12:30:53;;;;;;;6.75;3.10;;;22.10;99.40;;;;;;5050470;28;20047;-79
2022/06/04 12:33:29;;;;;;;5.72;3.08;;;22.10;99.10;;;;;;5044817;28;20456;-79
2022/06/04 12:36:03;;;;;;;6.18;3.10;;;22.20;99.40;;;;;;5032532;28;20041;-79
2022/06/04 12:38:34;;;;;;;8.18;4.20;;;22.20;99.90;;;;;;5039550;28;20376;-79
2022/06/04 12:41:14;;;;;;;8.77;3.85;;;22.30;99.60;;;;;;5052724;28;20045;-79
2022/06/04 12:44:01;;;;;;;7.25;3.20;;;22.30;98.30;;;;;;5050423;28;20135;-79
2022/06/04 12:46:27;;;;;;;8.10;3.45;;;22.40;98.70;;;;;;5039366;28;20141;-79
2022/06/04 12:49:26;;;;;;;9.85;3.58;;;22.40;98.80;;;;;;5047264;28;20045;-79
2022/06/04 12:51:58;;;;;;;7.82;3.28;;;22.40;98.60;;;;;;5040139;28;20082;-79
2022/06/04 12:54:37;;;;;;;9.40;4.13;;;22.40;97.40;;;;;;5050635;28;20055;-80
2022/06/04 12:57:11;;;;;;;8.13;3.20;;;22.40;98.20;;;;;;5042931;28;20064;-79
2022/06/04 12:59:42;;;;;;;8.60;3.13;;;22.50;98.80;;;;;;5058301;28;20044;-78
2022/06/04 13:03:02;;;;;;;18.25;3.67;;;22.50;97.80;;;;;;5032400;28;20793;-78
2022/06/04 13:05:28;;;;;;;7.93;3.50;;;22.50;97.50;;;;;;5012676;28;20100;-78
2022/06/04 13:08:08;;;;;;;7.25;3.90;;;22.50;98.30;;;;;;5031760;28;20543;-78
2022/06/04 13:10:45;;;;;;;7.00;3.22;;;22.50;97.80;;;;;;5031176;28;20049;-78
2022/06/04 13:13:48;;;;;;;8.30;3.45;;;22.50;97.70;;;;;;5035729;28;20041;-78
2022/06/04 13:16:21;;;;;;;8.00;3.33;;;22.40;97.50;;;;;;5050237;28;20053;-77
2022/06/04 13:19:25;;;;;;;9.23;3.38;;;22.50;98.40;;;;;;5049651;28;20482;-80
2022/06/04 13:21:51;;;;;;;9.13;3.90;;;22.60;97.80;;;;;;5033116;28;20068;-78
2022/06/04 13:24:22;;;;;;;11.85;3.55;;;22.60;98.10;;;;;;5054937;28;20491;-78
2022/06/04 13:27:10;;;;;;;8.30;3.60;;;22.70;98.00;;;;;;5044388;28;20094;-79
2022/06/04 13:29:37;;;;;;;6.47;3.72;;;22.70;97.30;;;;;;5045448;28;20041;-78